createdAt,value
2019-02-28T00:00:46.052Z,17.03
2019-02-28T00:05:48.850Z,25.40
2019-02-28T00:10:51.558Z,20.30
2019-02-28T00:15:54.256Z,22.00
2019-02-28T00:20:56.933Z,14.80
2019-02-28T00:25:59.623Z,21.37
2019-02-28T00:31:02.369Z,21.67
2019-02-28T00:36:05.068Z,24.83
2019-02-28T00:41:09.374Z,22.60
2019-02-28T00:46:12.363Z,23.30
2019-02-28T00:51:15.059Z,25.30
2019-02-28T00:56:18.358Z,27.60
2019-02-28T01:01:21.246Z,28.37
2019-02-28T01:06:23.977Z,31.23
2019-02-28T01:11:26.688Z,34.73
2019-02-28T01:16:29.404Z,38.30
2019-02-28T01:21:32.092Z,36.47
2019-02-28T01:26:34.787Z,39.87
2019-02-28T01:31:37.489Z,38.47
2019-02-28T01:36:40.184Z,40.83
2019-02-28T01:41:45.272Z,43.80
2019-02-28T01:46:48.482Z,41.47
2019-02-28T01:51:52.061Z,46.90
2019-02-28T01:56:54.744Z,45.77
2019-02-28T02:01:57.461Z,50.37
2019-02-28T02:07:00.480Z,51.30
2019-02-28T02:12:03.308Z,50.30
2019-02-28T02:17:06.027Z,48.17
2019-02-28T02:22:09.512Z,47.93
2019-02-28T02:27:13.034Z,50.17
2019-02-28T02:32:15.774Z,55.63
2019-02-28T02:37:18.654Z,57.53
2019-02-28T02:42:21.392Z,53.40
2019-02-28T02:47:24.119Z,58.70
2019-02-28T02:52:30.428Z,56.17
2019-02-28T02:57:31.519Z,58.10
2019-02-28T03:02:34.389Z,80.63
2019-02-28T03:07:37.238Z,59.00
2019-02-28T03:12:39.936Z,66.63
2019-02-28T03:17:46.526Z,68.90
2019-02-28T03:22:47.243Z,56.33
2019-02-28T03:27:55.044Z,64.57
2019-02-28T03:32:54.584Z,63.00
2019-02-28T03:37:57.280Z,59.90
2019-02-28T03:43:05.355Z,58.03
2019-02-28T03:48:04.574Z,64.23
2019-02-28T03:53:07.313Z,60.33
2019-02-28T03:58:10.195Z,63.60
2019-02-28T04:03:12.904Z,80.67
2019-02-28T04:08:15.679Z,73.37
2019-02-28T04:13:19.521Z,65.47
2019-02-28T04:18:23.159Z,72.13
2019-02-28T04:23:25.903Z,64.50
2019-02-28T04:28:28.617Z,62.30
2019-02-28T04:33:37.361Z,59.73
2019-02-28T04:38:36.071Z,65.17
2019-02-28T04:43:41.597Z,60.20
2019-02-28T04:48:45.661Z,61.37
2019-02-28T04:53:52.626Z,61.43
2019-02-28T04:58:53.361Z,60.70
2019-02-28T05:03:56.139Z,56.87
2019-02-28T05:08:58.887Z,62.30
2019-02-28T05:14:01.633Z,58.33
2019-02-28T05:19:04.424Z,61.27
2019-02-28T05:24:07.942Z,61.80
2019-02-28T05:29:12.040Z,62.77
2019-02-28T05:34:16.739Z,76.63
2019-02-28T05:39:19.583Z,69.13
2019-02-28T05:44:22.290Z,74.23
2019-02-28T05:49:25.060Z,70.80
2019-02-28T05:59:46.455Z,77.07
2019-02-28T06:04:50.490Z,67.30
2019-02-28T06:09:54.956Z,76.60
2019-02-28T06:15:03.317Z,76.73
2019-02-28T06:20:05.735Z,75.80
2019-02-28T06:25:10.334Z,96.87
2019-02-28T06:30:14.953Z,80.60
2019-02-28T06:35:20.466Z,77.70
2019-02-28T06:40:26.153Z,75.40
2019-02-28T06:45:31.103Z,87.67
2019-02-28T06:50:35.030Z,96.50
2019-02-28T06:55:47.152Z,86.17
2019-02-28T07:00:50.618Z,95.27
2019-02-28T07:05:54.390Z,87.80
2019-02-28T07:10:58.112Z,102.80
2019-02-28T07:16:04.307Z,83.60
2019-02-28T07:21:07.836Z,79.73
2019-02-28T07:26:11.451Z,95.33
2019-02-28T07:31:14.141Z,101.07
2019-02-28T07:36:16.847Z,95.53
2019-02-28T07:41:20.329Z,94.93
2019-02-28T07:46:24.709Z,87.73
2019-02-28T07:51:27.626Z,95.00
2019-02-28T07:56:31.409Z,91.83
2019-02-28T08:01:34.150Z,87.50
2019-02-28T08:06:39.234Z,86.67
2019-02-28T08:11:41.627Z,94.40
2019-02-28T08:16:44.343Z,91.27
2019-02-28T08:21:50.208Z,95.73
2019-02-28T08:26:53.505Z,87.23
2019-02-28T08:31:57.568Z,100.10
2019-02-28T08:37:00.443Z,89.80
2019-02-28T08:42:04.735Z,92.33
2019-02-28T08:47:07.984Z,98.00
2019-02-28T08:52:12.058Z,110.27
2019-02-28T08:57:15.651Z,95.93
2019-02-28T09:02:20.144Z,109.57
2019-02-28T09:07:23.962Z,97.57
2019-02-28T09:12:29.991Z,93.43
2019-02-28T09:17:33.483Z,95.93
2019-02-28T09:22:38.034Z,90.63
2019-02-28T09:27:41.976Z,89.20
2019-02-28T09:32:48.217Z,100.70
2019-02-28T09:37:51.206Z,94.07
2019-02-28T09:42:55.537Z,87.97
2019-02-28T09:48:02.018Z,90.67
2019-02-28T09:53:05.505Z,88.47
2019-02-28T09:58:09.479Z,77.83
2019-02-28T10:03:15.476Z,76.87
2019-02-28T10:08:21.813Z,84.13
2019-02-28T10:13:26.353Z,71.70
2019-02-28T10:18:30.480Z,77.93
2019-02-28T10:23:33.918Z,78.47
2019-02-28T10:28:38.503Z,67.57
2019-02-28T10:33:42.313Z,75.67
2019-02-28T10:38:46.489Z,80.93
2019-02-28T10:43:54.785Z,76.70
2019-02-28T10:48:56.750Z,80.30
2019-02-28T10:54:00.715Z,69.83
2019-02-28T10:59:05.328Z,71.70
2019-02-28T11:04:09.563Z,74.33
2019-02-28T11:09:21.692Z,68.10
2019-02-28T11:14:26.346Z,71.50
2019-02-28T11:19:30.816Z,71.10
2019-02-28T11:24:35.136Z,77.80
2019-02-28T11:29:38.896Z,69.27
2019-02-28T11:34:42.838Z,76.77
2019-02-28T11:39:47.100Z,86.53
2019-02-28T11:44:50.819Z,78.70
2019-02-28T11:50:00.366Z,69.80
2019-02-28T11:55:02.361Z,71.20
2019-02-28T12:00:14.185Z,71.47
2019-02-28T12:05:20.435Z,66.97
2019-02-28T12:10:27.070Z,73.60
2019-02-28T12:15:31.770Z,78.83
2019-02-28T12:20:35.886Z,76.13
2019-02-28T12:25:42.487Z,76.93
2019-02-28T12:30:45.156Z,70.37
2019-02-28T12:35:48.778Z,73.07
2019-02-28T12:40:52.989Z,66.47
2019-02-28T12:45:59.947Z,61.47
2019-02-28T12:51:05.368Z,68.17
2019-02-28T12:56:11.247Z,67.47
2019-02-28T13:01:14.194Z,63.10
2019-02-28T13:06:23.413Z,66.73
2019-02-28T13:11:23.434Z,74.07
2019-02-28T13:16:27.430Z,81.87
2019-02-28T13:21:31.339Z,68.57
2019-02-28T13:26:34.797Z,77.17
2019-02-28T13:31:38.510Z,75.13
2019-02-28T13:36:42.778Z,68.37
2019-02-28T13:41:46.967Z,71.73
2019-02-28T13:46:50.878Z,67.87
2019-02-28T13:51:54.750Z,78.30
2019-02-28T13:56:57.747Z,68.60
2019-02-28T14:02:00.728Z,80.50
2019-02-28T14:07:03.778Z,66.33
2019-02-28T14:12:06.703Z,63.50
2019-02-28T14:17:09.525Z,78.73
2019-02-28T14:22:12.368Z,69.73
2019-02-28T14:27:15.218Z,72.20
2019-02-28T14:32:17.951Z,72.97
2019-02-28T14:37:20.695Z,71.90
2019-02-28T14:42:23.452Z,75.47
2019-02-28T14:47:28.500Z,72.60
2019-02-28T14:52:30.832Z,72.17
2019-02-28T14:57:33.733Z,82.10
2019-02-28T15:02:36.586Z,71.63
2019-02-28T15:07:39.735Z,70.10
2019-02-28T15:12:44.212Z,67.63
2019-02-28T15:17:47.073Z,76.03
2019-02-28T15:22:52.507Z,75.37
2019-02-28T15:27:54.680Z,73.33
2019-02-28T15:32:57.445Z,80.47
2019-02-28T15:38:00.162Z,82.00
2019-02-28T15:43:02.987Z,77.80
2019-02-28T15:48:05.724Z,76.60
2019-02-28T15:53:11.193Z,88.23
2019-02-28T15:58:13.135Z,84.17
2019-02-28T16:03:16.790Z,68.00
2019-02-28T16:08:20.212Z,75.37
2019-02-28T16:13:25.877Z,86.23
2019-02-28T16:18:27.562Z,79.20
2019-02-28T16:23:31.083Z,92.07
2019-02-28T16:28:34.078Z,100.43
2019-02-28T16:33:37.361Z,84.83
2019-02-28T16:38:42.411Z,81.67
2019-02-28T16:43:45.081Z,72.93
2019-02-28T16:48:47.806Z,81.17
2019-02-28T16:53:50.511Z,78.43
2019-02-28T16:58:53.789Z,71.90
2019-02-28T17:03:58.068Z,76.80
2019-02-28T17:09:32.458Z,81.03
2019-02-28T17:14:35.309Z,74.47
2019-02-28T17:19:38.105Z,86.77
2019-02-28T17:24:45.737Z,82.70
2019-02-28T17:29:53.619Z,83.97
2019-02-28T17:34:58.982Z,82.80
2019-02-28T17:40:01.054Z,87.17
2019-02-28T17:45:23.421Z,99.30
2019-02-28T17:51:03.051Z,78.70
2019-02-28T17:56:44.636Z,81.20
2019-02-28T18:02:39.548Z,85.57
2019-02-28T18:08:37.493Z,88.90
2019-02-28T18:14:13.244Z,96.73
2019-02-28T18:25:17.331Z,85.40
2019-02-28T18:31:19.249Z,97.93
2019-02-28T18:36:25.180Z,74.40
2019-02-28T18:41:27.914Z,82.57
2019-02-28T18:46:30.857Z,84.03
2019-02-28T18:51:33.761Z,70.40
2019-02-28T18:56:44.881Z,76.63
2019-02-28T19:01:47.723Z,82.77
2019-02-28T19:06:50.477Z,80.27
2019-02-28T19:11:57.537Z,95.77
2019-02-28T19:17:00.349Z,95.43
2019-02-28T19:22:03.324Z,108.43
2019-02-28T19:27:06.275Z,108.73
2019-02-28T19:32:09.140Z,117.03
2019-02-28T19:37:11.881Z,109.67
2019-02-28T19:42:14.636Z,99.60
2019-02-28T19:47:17.391Z,113.90
2019-02-28T19:52:20.159Z,98.20
2019-02-28T19:57:22.937Z,73.97
2019-02-28T20:02:25.918Z,80.87
2019-02-28T20:07:29.026Z,81.63
2019-02-28T20:12:31.813Z,68.27
2019-02-28T20:17:34.697Z,69.33
2019-02-28T20:22:37.440Z,67.90
2019-02-28T20:27:40.213Z,66.63
2019-02-28T20:32:43.015Z,68.93
2019-02-28T20:37:45.719Z,67.93
2019-02-28T20:42:48.445Z,85.47
2019-02-28T20:47:51.210Z,69.77
2019-02-28T20:52:54.322Z,67.50
2019-02-28T20:57:57.048Z,77.87
2019-02-28T21:02:59.815Z,64.93
2019-02-28T21:08:02.555Z,67.77
2019-02-28T21:13:05.281Z,64.47
2019-02-28T21:18:08.053Z,69.13
2019-02-28T21:23:10.852Z,78.97
2019-02-28T21:28:13.581Z,72.37
2019-02-28T21:33:16.330Z,72.23
2019-02-28T21:38:19.074Z,93.83
2019-02-28T21:43:21.779Z,74.40
2019-02-28T21:48:24.569Z,85.37
2019-02-28T21:53:27.379Z,79.30
2019-02-28T21:58:31.310Z,69.30
2019-02-28T22:03:34.157Z,80.07
2019-02-28T22:08:36.890Z,83.67
2019-02-28T22:13:39.666Z,71.43
2019-02-28T22:18:42.405Z,72.47
2019-02-28T22:23:45.136Z,65.13
2019-02-28T22:28:47.859Z,74.80
2019-02-28T22:34:22.345Z,63.80
2019-02-28T22:39:25.037Z,78.57
2019-02-28T22:44:27.761Z,75.57
2019-02-28T22:49:30.465Z,76.80
2019-02-28T22:54:33.207Z,92.50
2019-02-28T22:59:35.924Z,80.97
2019-02-28T23:04:38.928Z,73.00
2019-02-28T23:09:41.670Z,87.53
2019-02-28T23:14:44.405Z,70.60
2019-02-28T23:19:47.128Z,69.97
2019-02-28T23:24:49.858Z,57.90
2019-02-28T23:31:24.385Z,61.23
2019-02-28T23:36:27.262Z,51.60
2019-02-28T23:41:30.091Z,66.33
2019-02-28T23:46:32.803Z,53.60
2019-02-28T23:51:35.516Z,66.80
2019-02-28T23:56:38.225Z,66.93
